sensor_id;sensor_type;location;lat;lon;timestamp;temperature;humidity
58363;DHT22;54977;51.510;7.522;2022-11-20T00:03:06;-2.20;76.30
58363;DHT22;54977;51.510;7.522;2022-11-20T00:08:08;-2.20;76.40
58363;DHT22;54977;51.510;7.522;2022-11-20T00:13:12;-2.30;77.60
58363;DHT22;54977;51.510;7.522;2022-11-20T00:18:14;-2.20;78.10
58363;DHT22;54977;51.510;7.522;2022-11-20T00:23:15;-2.10;77.40
58363;DHT22;54977;51.510;7.522;2022-11-20T00:28:19;-2.00;76.80
58363;DHT22;54977;51.510;7.522;2022-11-20T00:33:20;-1.90;76.80
58363;DHT22;54977;51.510;7.522;2022-11-20T00:38:22;-1.80;77.30
58363;DHT22;54977;51.510;7.522;2022-11-20T00:43:26;-1.70;78.00
58363;DHT22;54977;51.510;7.522;2022-11-20T09:43:30;-1.60;78.40
58363;DHT22;54977;51.510;7.522;2022-11-20T09:48:46;5.90;62.50
58363;DHT22;54977;51.510;7.522;2022-11-20T12:00:03;5.20;64.00
58363;DHT22;54977;51.510;7.522;2022-11-20T12:05:09;6.80;60.70
58363;DHT22;54977;51.510;7.522;2022-11-20T12:10:17;6.70;60.20
58363;DHT22;54977;51.510;7.522;2022-11-20T12:15:25;6.00;61.00
58363;DHT22;54977;51.510;7.522;2022-11-20T12:20:29;5.90;61.50
58363;DHT22;54977;51.510;7.522;2022-11-20T12:25:32;6.00;61.80
58363;DHT22;54977;51.510;7.522;2022-11-20T12:30:38;6.10;61.90
58363;DHT22;54977;51.510;7.522;2022-11-20T12:35:52;6.10;60.50
58363;DHT22;54977;51.510;7.522;2022-11-20T12:41:00;6.10;61.10
58363;DHT22;54977;51.510;7.522;2022-11-20T12:46:09;6.20;61.20
58363;DHT22;54977;51.510;7.522;2022-11-20T12:51:21;6.50;60.80
58363;DHT22;54977;51.510;7.522;2022-11-20T12:56:28;6.30;59.70
58363;DHT22;54977;51.510;7.522;2022-11-20T13:01:37;5.80;61.00
58363;DHT22;54977;51.510;7.522;2022-11-20T13:06:43;5.80;61.10
58363;DHT22;54977;51.510;7.522;2022-11-20T13:11:46;5.60;62.10
58363;DHT22;54977;51.510;7.522;2022-11-20T13:16:52;5.60;62.70
58363;DHT22;54977;51.510;7.522;2022-11-20T13:21:56;5.30;63.00
58363;DHT22;54977;51.510;7.522;2022-11-20T13:27:05;5.20;64.10
58363;DHT22;54977;51.510;7.522;2022-11-20T13:32:13;5.10;64.90
58363;DHT22;54977;51.510;7.522;2022-11-20T13:37:23;4.80;66.50
58363;DHT22;54977;51.510;7.522;2022-11-20T13:42:27;4.90;66.90
58363;DHT22;54977;51.510;7.522;2022-11-20T13:47:30;4.90;66.60
58363;DHT22;54977;51.510;7.522;2022-11-20T13:52:36;5.00;66.40
58363;DHT22;54977;51.510;7.522;2022-11-20T13:57:47;4.80;66.70
58363;DHT22;54977;51.510;7.522;2022-11-20T14:03:13;4.70;66.70
58363;DHT22;54977;51.510;7.522;2022-11-20T14:08:24;4.60;66.80
58363;DHT22;54977;51.510;7.522;2022-11-20T14:13:26;4.70;66.90
58363;DHT22;54977;51.510;7.522;2022-11-20T14:18:29;4.60;67.30
58363;DHT22;54977;51.510;7.522;2022-11-20T14:23:31;4.60;67.00
58363;DHT22;54977;51.510;7.522;2022-11-20T14:28:32;4.40;67.40
58363;DHT22;54977;51.510;7.522;2022-11-20T14:33:35;4.60;67.50
58363;DHT22;54977;51.510;7.522;2022-11-20T14:38:38;4.60;67.50
58363;DHT22;54977;51.510;7.522;2022-11-20T14:43:40;4.50;68.00
58363;DHT22;54977;51.510;7.522;2022-11-20T14:48:54;4.60;67.40
58363;DHT22;54977;51.510;7.522;2022-11-20T14:53:56;4.70;67.40
58363;DHT22;54977;51.510;7.522;2022-11-20T14:58:57;4.50;68.30
58363;DHT22;54977;51.510;7.522;2022-11-20T15:04:01;4.60;68.50
58363;DHT22;54977;51.510;7.522;2022-11-20T15:09:12;4.60;68.70
58363;DHT22;54977;51.510;7.522;2022-11-20T15:14:14;4.50;69.10
58363;DHT22;54977;51.510;7.522;2022-11-20T15:19:18;4.50;69.10
58363;DHT22;54977;51.510;7.522;2022-11-20T15:24:20;4.60;68.90
58363;DHT22;54977;51.510;7.522;2022-11-20T15:29:22;4.60;69.40
58363;DHT22;54977;51.510;7.522;2022-11-20T15:34:27;4.40;71.50
58363;DHT22;54977;51.510;7.522;2022-11-20T15:39:28;4.30;72.90
58363;DHT22;54977;51.510;7.522;2022-11-20T15:44:30;4.40;73.50
58363;DHT22;54977;51.510;7.522;2022-11-20T15:49:33;4.30;74.00
58363;DHT22;54977;51.510;7.522;2022-11-20T15:54:37;4.30;74.40
58363;DHT22;54977;51.510;7.522;2022-11-20T15:59:38;4.20;75.40
58363;DHT22;54977;51.510;7.522;2022-11-20T16:04:43;4.30;76.00
58363;DHT22;54977;51.510;7.522;2022-11-20T16:09:44;4.20;76.20
58363;DHT22;54977;51.510;7.522;2022-11-20T16:14:46;4.30;76.40
58363;DHT22;54977;51.510;7.522;2022-11-20T16:20:09;4.30;76.60
58363;DHT22;54977;51.510;7.522;2022-11-20T16:25:11;4.50;76.30
58363;DHT22;54977;51.510;7.522;2022-11-20T16:30:13;4.40;76.30
58363;DHT22;54977;51.510;7.522;2022-11-20T16:35:16;4.40;77.20
58363;DHT22;54977;51.510;7.522;2022-11-20T16:40:17;4.40;78.20
58363;DHT22;54977;51.510;7.522;2022-11-20T16:45:19;4.30;78.20
58363;DHT22;54977;51.510;7.522;2022-11-20T16:50:22;4.20;78.80
58363;DHT22;54977;51.510;7.522;2022-11-20T16:55:24;4.50;78.20
58363;DHT22;54977;51.510;7.522;2022-11-20T17:00:27;4.60;78.30
58363;DHT22;54977;51.510;7.522;2022-11-20T17:05:30;4.60;78.30
58363;DHT22;54977;51.510;7.522;2022-11-20T17:10:31;4.70;78.10
58363;DHT22;54977;51.510;7.522;2022-11-20T17:15:33;4.70;78.60
58363;DHT22;54977;51.510;7.522;2022-11-20T17:20:36;4.70;79.00
58363;DHT22;54977;51.510;7.522;2022-11-20T17:25:38;4.80;79.10
58363;DHT22;54977;51.510;7.522;2022-11-20T17:30:39;4.80;79.40
58363;DHT22;54977;51.510;7.522;2022-11-20T17:35:42;4.80;79.40
58363;DHT22;54977;51.510;7.522;2022-11-20T17:40:44;4.80;79.80
58363;DHT22;54977;51.510;7.522;2022-11-20T17:45:46;4.90;80.20
58363;DHT22;54977;51.510;7.522;2022-11-20T17:50:49;4.90;80.30
58363;DHT22;54977;51.510;7.522;2022-11-20T17:55:53;4.90;80.70
58363;DHT22;54977;51.510;7.522;2022-11-20T18:01:13;5.00;80.80
58363;DHT22;54977;51.510;7.522;2022-11-20T18:06:16;5.00;81.10
58363;DHT22;54977;51.510;7.522;2022-11-20T18:11:19;5.00;81.60
58363;DHT22;54977;51.510;7.522;2022-11-20T18:16:21;5.20;81.20
58363;DHT22;54977;51.510;7.522;2022-11-20T18:21:25;5.10;81.30
58363;DHT22;54977;51.510;7.522;2022-11-20T18:26:27;5.10;81.40
58363;DHT22;54977;51.510;7.522;2022-11-20T18:31:28;5.00;82.00
58363;DHT22;54977;51.510;7.522;2022-11-20T18:36:31;5.10;82.00
58363;DHT22;54977;51.510;7.522;2022-11-20T18:41:33;5.00;82.30
58363;DHT22;54977;51.510;7.522;2022-11-20T18:46:52;5.00;83.10
58363;DHT22;54977;51.510;7.522;2022-11-20T18:51:55;5.10;83.20
58363;DHT22;54977;51.510;7.522;2022-11-20T18:56:57;5.10;83.30
58363;DHT22;54977;51.510;7.522;2022-11-20T19:01:58;5.20;83.10
58363;DHT22;54977;51.510;7.522;2022-11-20T19:07:01;5.10;83.40
58363;DHT22;54977;51.510;7.522;2022-11-20T19:12:03;5.10;83.80
58363;DHT22;54977;51.510;7.522;2022-11-20T19:17:05;5.10;84.20
58363;DHT22;54977;51.510;7.522;2022-11-20T19:22:08;5.20;84.80
58363;DHT22;54977;51.510;7.522;2022-11-20T19:27:10;5.00;85.30
58363;DHT22;54977;51.510;7.522;2022-11-20T19:37:15;5.30;85.00
